Overview Statistics Trail Chart Weather Telemetry Raw packets
 

This is the latest recevied weather packets stored in our database for station/object OM6ACB-6. If no packets are shown the sender has not sent any weather packets the latest 10 day(s).

<< 38 39 40 41 42 43 44 >>
Time Temp. Humidity Pressure Rain* Wind** Luminosity Snow
1788077511 23.33° C 21% 1023.1 hPa 0 mm - - -
1788076910 25° C 20% 1023.3 hPa 0 mm - - -
1788076310 21.67° C 22% 1022.8 hPa 0 mm - - -
1788075710 22.78° C 21% 1023 hPa 0 mm - - -
1788075110 22.22° C 21% 1023 hPa 0 mm - - -
1788074509 21.67° C 22% 1022.9 hPa 0 mm - - -
1788073909 20.56° C 22% 1022.9 hPa 0 mm - - -
1788073309 20.56° C 22% 1022.7 hPa 0 mm - - -
1788072708 21.67° C 22% 1022.7 hPa 0 mm - - -
1788072108 20.56° C 22% 1022.7 hPa 0 mm - - -
1788071508 18.89° C 23% 1022.3 hPa 0 mm - - -
1788070908 17.78° C 24% 1022.3 hPa 0 mm - - -
1788070307 17.22° C 24% 1022.1 hPa 0 mm - - -
1788069707 16.67° C 24% 1021.9 hPa 0 mm - - -
1788069107 17.78° C 24% 1021.9 hPa 0 mm - - -
1788068506 16.11° C 24% 1021.7 hPa 0 mm - - -
1788067906 15.56° C 25% 1021.5 hPa 0 mm - - -
1788067306 13.89° C 26% 1021.3 hPa 0 mm - - -
1788066705 13.89° C 26% 1021.3 hPa 0 mm - - -
1788066105 12.78° C 26% 1021.2 hPa 0 mm - - -
1788065505 12.22° C 28% 1020.9 hPa 0 mm - - -
1788064905 10° C 50% 1020.6 hPa 0 mm - - -
1788064304 10.56° C 61% 1020.8 hPa 0 mm - - -
1788063704 8.89° C 63% 1020.4 hPa 0 mm - - -
1788063104 8.89° C 63% 1020.4 hPa 0 mm - - -

* Rain latest hour (hover to see other rain measurements)
** Current wind speed in m/s (hover to see current wind gust speed)